createdAt,value
2017-04-29T00:00:23.891Z,52.40
2017-04-29T00:02:53.713Z,51.80
2017-04-29T00:05:23.517Z,51.50
2017-04-29T00:07:53.331Z,51.80
2017-04-29T00:10:22.369Z,51.80
2017-04-29T00:12:51.430Z,52.40
2017-04-29T00:15:20.467Z,52.60
2017-04-29T00:17:49.583Z,52.70
2017-04-29T00:20:19.374Z,53.00
2017-04-29T00:22:48.409Z,54.00
2017-04-29T00:25:17.486Z,53.30
2017-04-29T00:27:47.299Z,53.80
2017-04-29T00:30:17.093Z,53.30
2017-04-29T00:32:46.217Z,53.50
2017-04-29T00:35:16.019Z,53.90
2017-04-29T00:37:45.058Z,55.70
2017-04-29T00:40:14.130Z,53.90
2017-04-29T00:42:43.202Z,54.10
2017-04-29T00:45:12.299Z,54.50
2017-04-29T00:47:41.398Z,55.20
2017-04-29T00:50:11.211Z,56.50
2017-04-29T00:52:40.339Z,56.30
2017-04-29T00:55:09.413Z,57.10
2017-04-29T00:57:39.184Z,57.00
2017-04-29T01:00:08.317Z,57.30
2017-04-29T01:02:38.132Z,58.70
2017-04-29T01:05:07.938Z,59.40
2017-04-29T01:07:37.729Z,58.50
2017-04-29T01:10:06.763Z,58.80
2017-04-29T01:12:35.817Z,59.70
2017-04-29T01:15:04.937Z,60.40
2017-04-29T01:17:34.729Z,61.10
2017-04-29T01:20:03.766Z,61.80
2017-04-29T01:22:32.816Z,62.70
2017-04-29T01:25:01.932Z,63.90
2017-04-29T01:27:31.038Z,64.90
2017-04-29T01:30:00.814Z,66.90
2017-04-29T01:32:29.942Z,68.50
2017-04-29T01:34:59.825Z,70.20
2017-04-29T01:37:28.890Z,71.00
2017-04-29T01:39:57.947Z,71.70
2017-04-29T01:42:27.730Z,73.20
2017-04-29T01:44:56.800Z,74.70
2017-04-29T01:47:25.830Z,76.20
2017-04-29T01:49:54.999Z,77.50
2017-04-29T01:52:24.801Z,79.40
2017-04-29T01:54:53.901Z,80.00
2017-04-29T01:57:23.718Z,81.60
2017-04-29T01:59:53.523Z,82.70
2017-04-29T02:02:23.337Z,84.40
2017-04-29T02:04:53.154Z,84.20
2017-04-29T02:07:22.937Z,83.80
2017-04-29T02:09:52.735Z,85.60
2017-04-29T02:12:21.769Z,84.50
2017-04-29T02:14:50.817Z,84.70
2017-04-29T02:17:20.617Z,84.10
2017-04-29T02:19:50.428Z,83.80
2017-04-29T02:22:20.204Z,85.00
2017-04-29T02:24:49.339Z,85.00
2017-04-29T02:27:18.396Z,83.80
2017-04-29T02:29:47.421Z,83.30
2017-04-29T02:32:16.485Z,82.40
2017-04-29T02:34:45.521Z,82.40
2017-04-29T02:37:15.334Z,82.20
2017-04-29T02:39:45.242Z,82.90
2017-04-29T02:42:14.351Z,83.70
2017-04-29T02:44:44.164Z,83.60
2017-04-29T02:49:42.869Z,83.70
2017-04-29T02:52:12.669Z,83.90
2017-04-29T02:54:41.765Z,83.10
2017-04-29T02:57:10.817Z,84.60
2017-04-29T02:59:39.846Z,83.00
2017-04-29T03:02:08.948Z,81.40
2017-04-29T03:04:38.050Z,82.40
2017-04-29T03:07:07.851Z,83.80
2017-04-29T03:09:36.957Z,82.10
2017-04-29T03:12:07.754Z,82.00
2017-04-29T03:14:36.800Z,82.00
2017-04-29T03:17:06.585Z,82.30
2017-04-29T03:19:35.697Z,82.10
2017-04-29T03:22:04.743Z,82.50
2017-04-29T03:24:33.881Z,82.20
2017-04-29T03:27:02.995Z,82.90
2017-04-29T03:29:32.846Z,82.30
2017-04-29T03:32:01.955Z,82.60
2017-04-29T03:34:31.765Z,82.60
2017-04-29T03:37:01.542Z,82.70
2017-04-29T03:39:30.682Z,82.90
2017-04-29T03:42:00.478Z,83.10
2017-04-29T03:44:30.405Z,83.10
2017-04-29T03:46:59.491Z,82.40
2017-04-29T03:49:28.583Z,82.60
2017-04-29T03:51:57.708Z,82.80
2017-04-29T03:54:26.780Z,82.40
2017-04-29T03:56:56.565Z,82.90
2017-04-29T03:59:25.681Z,82.60
2017-04-29T04:01:54.817Z,82.60
2017-04-29T04:04:23.885Z,82.60
2017-04-29T04:06:52.922Z,82.60
2017-04-29T04:09:22.086Z,82.80
2017-04-29T04:11:51.863Z,82.60
2017-04-29T04:14:21.076Z,83.00
2017-04-29T04:16:50.136Z,82.90
2017-04-29T04:19:19.177Z,83.00
2017-04-29T04:21:48.998Z,83.60
2017-04-29T04:24:18.773Z,83.30
2017-04-29T04:26:47.907Z,84.10
2017-04-29T04:29:17.721Z,85.00
2017-04-29T04:31:47.504Z,85.00
2017-04-29T04:34:16.545Z,86.00
2017-04-29T04:36:45.612Z,86.40
2017-04-29T04:39:14.650Z,86.10
2017-04-29T04:41:43.709Z,86.60
2017-04-29T04:44:13.515Z,86.20
2017-04-29T04:46:42.756Z,87.00
2017-04-29T04:49:12.456Z,88.60
2017-04-29T04:51:41.509Z,87.30
2017-04-29T04:54:10.553Z,87.60
2017-04-29T04:56:39.620Z,88.50
2017-04-29T04:59:08.751Z,87.50
2017-04-29T05:01:38.558Z,87.80
2017-04-29T05:04:07.639Z,87.90
2017-04-29T05:06:36.677Z,87.70
2017-04-29T05:09:05.756Z,88.20
2017-04-29T05:11:35.549Z,88.80
2017-04-29T05:14:04.627Z,87.70
2017-04-29T05:16:33.754Z,87.20
2017-04-29T05:19:03.566Z,86.90
2017-04-29T05:21:32.609Z,86.70
2017-04-29T05:24:02.401Z,86.00
2017-04-29T05:26:31.450Z,86.60
2017-04-29T05:29:00.526Z,86.50
2017-04-29T05:31:30.337Z,85.90
2017-04-29T05:34:00.244Z,86.10
2017-04-29T05:36:30.035Z,84.50
2017-04-29T05:38:59.090Z,84.50
2017-04-29T05:41:28.140Z,85.30
2017-04-29T05:43:57.941Z,82.80
2017-04-29T05:46:26.984Z,79.70
2017-04-29T05:48:56.033Z,80.10
2017-04-29T05:51:25.140Z,78.90
2017-04-29T05:53:54.982Z,80.30
2017-04-29T05:56:24.051Z,79.40
2017-04-29T05:58:53.829Z,79.70
2017-04-29T06:01:22.881Z,79.90
2017-04-29T06:03:51.917Z,81.30
2017-04-29T06:06:20.979Z,81.30
2017-04-29T06:08:50.020Z,81.70
2017-04-29T06:11:19.137Z,82.70
2017-04-29T06:13:48.963Z,82.10
2017-04-29T06:16:18.874Z,82.20
2017-04-29T06:18:48.701Z,81.70
2017-04-29T06:21:18.502Z,81.60
2017-04-29T06:23:48.314Z,81.00
2017-04-29T06:26:18.111Z,80.60
2017-04-29T06:28:47.154Z,80.30
2017-04-29T06:31:16.225Z,80.40
2017-04-29T06:33:45.261Z,79.30
2017-04-29T06:36:14.399Z,79.00
2017-04-29T06:38:44.194Z,79.10
2017-04-29T06:41:13.226Z,79.40
2017-04-29T06:43:42.281Z,78.80
2017-04-29T06:46:11.409Z,77.00
2017-04-29T06:48:41.242Z,76.20
2017-04-29T06:51:10.333Z,74.50
2017-04-29T06:53:40.236Z,74.10
2017-04-29T06:56:10.045Z,73.10
2017-04-29T06:58:39.841Z,73.40
2017-04-29T07:01:08.877Z,71.20
2017-04-29T07:03:37.948Z,70.90
2017-04-29T07:06:07.728Z,71.30
2017-04-29T07:08:36.861Z,71.30
2017-04-29T07:11:06.635Z,70.40
2017-04-29T07:13:35.760Z,71.30
2017-04-29T07:16:05.525Z,69.20
2017-04-29T07:18:34.600Z,70.30
2017-04-29T07:21:03.628Z,68.40
2017-04-29T07:23:32.693Z,67.90
2017-04-29T07:26:01.729Z,64.10
2017-04-29T07:28:30.766Z,64.80
2017-04-29T07:30:59.844Z,64.20
2017-04-29T07:33:29.613Z,61.30
2017-04-29T07:35:58.664Z,60.50
2017-04-29T07:38:27.697Z,61.70
2017-04-29T07:40:56.738Z,61.60
2017-04-29T07:43:26.517Z,59.50
2017-04-29T07:45:55.632Z,59.30
2017-04-29T07:48:24.816Z,59.40
2017-04-29T07:50:53.942Z,58.70
2017-04-29T07:53:23.753Z,56.00
2017-04-29T07:55:53.563Z,54.50
2017-04-29T07:58:23.381Z,53.30
2017-04-29T08:00:53.164Z,53.20
2017-04-29T08:03:22.193Z,54.70
2017-04-29T08:05:51.995Z,54.30
2017-04-29T08:08:21.786Z,53.70
2017-04-29T08:10:50.930Z,53.40
2017-04-29T08:13:19.974Z,53.00
2017-04-29T08:15:49.004Z,53.80
2017-04-29T08:18:18.044Z,53.00
2017-04-29T08:20:47.089Z,51.50
2017-04-29T08:23:16.903Z,51.00
2017-04-29T08:25:46.678Z,51.00
2017-04-29T08:28:15.810Z,49.80
2017-04-29T08:30:45.594Z,50.10
2017-04-29T08:33:14.629Z,50.10
2017-04-29T08:35:43.701Z,50.60
2017-04-29T08:38:12.896Z,53.40
2017-04-29T08:40:42.004Z,55.60
2017-04-29T08:43:11.037Z,56.90
2017-04-29T08:45:40.065Z,56.90
2017-04-29T08:48:09.185Z,55.90
2017-04-29T08:50:38.989Z,57.20
2017-04-29T08:53:08.123Z,55.40
2017-04-29T08:55:37.166Z,54.40
2017-04-29T08:58:06.193Z,51.20
2017-04-29T09:00:36.000Z,49.70
2017-04-29T09:03:05.834Z,48.40
2017-04-29T09:05:34.873Z,47.80
2017-04-29T09:08:04.003Z,47.20
2017-04-29T09:10:33.108Z,48.10
2017-04-29T09:13:02.871Z,46.80
2017-04-29T09:15:31.934Z,47.30
2017-04-29T09:18:00.965Z,45.80
2017-04-29T09:20:30.022Z,46.90
2017-04-29T09:22:59.093Z,45.90
2017-04-29T09:25:28.874Z,46.90
2017-04-29T09:27:58.010Z,46.60
2017-04-29T09:30:27.821Z,47.70
2017-04-29T09:32:57.588Z,46.80
2017-04-29T09:35:26.712Z,44.80
2017-04-29T09:37:55.743Z,43.70
2017-04-29T09:40:24.801Z,43.20
2017-04-29T09:42:53.845Z,43.30
2017-04-29T09:45:22.888Z,44.50
2017-04-29T09:47:51.989Z,43.20
2017-04-29T09:50:21.058Z,43.00
2017-04-29T09:52:50.095Z,41.20
2017-04-29T09:55:19.133Z,41.50
2017-04-29T09:57:48.174Z,41.20
2017-04-29T10:00:17.213Z,41.90
2017-04-29T10:02:46.257Z,42.50
2017-04-29T10:05:15.360Z,41.80
2017-04-29T10:07:45.174Z,41.90
2017-04-29T10:10:14.950Z,41.10
2017-04-29T10:12:44.095Z,40.40
2017-04-29T10:15:13.890Z,40.50
2017-04-29T10:17:42.991Z,40.40
2017-04-29T10:20:12.772Z,40.70
2017-04-29T10:22:41.893Z,40.50
2017-04-29T10:25:10.946Z,38.70
2017-04-29T10:27:40.010Z,38.70
2017-04-29T10:30:09.080Z,39.50
2017-04-29T10:32:38.187Z,40.20
2017-04-29T10:35:07.209Z,38.60
2017-04-29T10:37:36.265Z,39.90
2017-04-29T10:40:05.285Z,39.30
2017-04-29T10:42:34.338Z,40.50
2017-04-29T10:45:03.370Z,40.20
2017-04-29T10:47:32.438Z,41.10
2017-04-29T10:50:01.466Z,42.40
2017-04-29T10:52:30.540Z,42.80
2017-04-29T10:55:00.304Z,42.90
2017-04-29T10:57:29.344Z,42.50
2017-04-29T10:59:58.535Z,42.40
2017-04-29T11:02:27.742Z,42.50
2017-04-29T11:04:56.840Z,41.70
2017-04-29T11:07:25.864Z,42.10
2017-04-29T11:09:55.021Z,41.80
2017-04-29T11:12:24.129Z,40.00
2017-04-29T11:14:53.912Z,40.40
2017-04-29T11:17:22.948Z,40.50
2017-04-29T11:19:52.733Z,40.20
2017-04-29T11:22:21.761Z,41.60
2017-04-29T11:24:50.805Z,40.90
2017-04-29T11:27:19.845Z,38.90
2017-04-29T11:29:49.738Z,37.90
2017-04-29T11:32:18.837Z,38.30
2017-04-29T11:34:48.633Z,38.40
2017-04-29T11:37:17.752Z,38.00
2017-04-29T11:39:47.557Z,37.00
2017-04-29T11:42:16.596Z,37.20
2017-04-29T11:44:45.645Z,37.70
2017-04-29T11:47:14.754Z,38.50
2017-04-29T11:49:44.548Z,37.70
2017-04-29T11:52:13.653Z,38.40
2017-04-29T11:54:43.467Z,39.30
2017-04-29T11:57:12.974Z,39.90
2017-04-29T11:59:42.757Z,39.80
2017-04-29T12:02:11.878Z,40.20
2017-04-29T12:04:40.991Z,41.40
2017-04-29T12:07:10.791Z,42.30
2017-04-29T12:09:40.565Z,40.40
2017-04-29T12:12:09.700Z,40.30
2017-04-29T12:14:39.511Z,41.20
2017-04-29T12:17:09.326Z,41.00
2017-04-29T12:19:38.372Z,39.00
2017-04-29T12:22:07.425Z,39.00
2017-04-29T12:24:36.450Z,38.70
2017-04-29T12:27:05.501Z,39.60
2017-04-29T12:29:34.551Z,39.40
2017-04-29T12:32:03.598Z,38.90
2017-04-29T12:34:33.428Z,32.10
2017-04-29T12:37:02.452Z,31.00
2017-04-29T12:39:31.606Z,32.60
2017-04-29T12:42:01.401Z,34.40
2017-04-29T12:44:30.452Z,35.60
2017-04-29T12:46:59.502Z,36.80
2017-04-29T12:49:29.306Z,38.20
2017-04-29T12:51:58.411Z,38.60
2017-04-29T12:54:28.227Z,39.70
2017-04-29T12:56:58.154Z,40.00
2017-04-29T12:59:28.063Z,40.70
2017-04-29T13:01:57.869Z,41.80
2017-04-29T13:04:27.669Z,42.50
2017-04-29T13:06:56.713Z,42.00
2017-04-29T13:09:25.878Z,43.90
2017-04-29T13:11:55.653Z,43.10
2017-04-29T13:14:24.716Z,40.50
2017-04-29T13:16:53.778Z,35.20
2017-04-29T13:19:23.587Z,30.50
2017-04-29T13:21:53.399Z,27.70
2017-04-29T13:24:23.211Z,25.40
2017-04-29T13:26:53.009Z,24.90
2017-04-29T13:29:22.038Z,24.70
2017-04-29T13:31:51.110Z,23.90
2017-04-29T13:34:20.208Z,23.10
2017-04-29T13:36:50.011Z,26.40
2017-04-29T13:39:19.029Z,26.50
2017-04-29T13:41:48.122Z,27.30
2017-04-29T13:44:17.921Z,29.00
2017-04-29T13:46:47.873Z,31.10
2017-04-29T13:49:16.931Z,31.50
2017-04-29T13:51:46.006Z,32.80
2017-04-29T13:54:15.057Z,34.30
2017-04-29T13:56:44.108Z,34.30
2017-04-29T13:59:13.214Z,33.70
2017-04-29T14:01:42.305Z,35.60
2017-04-29T14:04:11.406Z,37.00
2017-04-29T14:06:41.198Z,37.60
2017-04-29T14:09:10.317Z,38.50
2017-04-29T14:11:40.319Z,37.70
2017-04-29T14:14:09.374Z,37.90
2017-04-29T14:16:38.425Z,41.60
2017-04-29T14:19:08.222Z,43.30
2017-04-29T14:21:37.247Z,44.60
2017-04-29T14:24:06.297Z,41.90
2017-04-29T14:26:35.325Z,40.70
2017-04-29T14:29:05.135Z,40.30
2017-04-29T14:31:34.915Z,39.30
2017-04-29T14:34:03.969Z,41.50
2017-04-29T14:36:33.000Z,45.30
2017-04-29T14:39:02.138Z,42.90
2017-04-29T14:41:31.936Z,38.40
2017-04-29T14:44:01.726Z,36.40
2017-04-29T14:46:30.757Z,37.40
2017-04-29T14:49:00.545Z,38.10
2017-04-29T14:51:29.653Z,39.00
2017-04-29T14:53:59.465Z,40.80
2017-04-29T14:56:28.513Z,42.70
2017-04-29T14:58:57.558Z,44.80
2017-04-29T15:01:26.658Z,46.70
2017-04-29T15:03:56.462Z,47.50
2017-04-29T15:06:25.566Z,47.30
2017-04-29T15:08:55.355Z,47.70
2017-04-29T15:11:24.401Z,48.40
2017-04-29T15:13:53.466Z,48.90
2017-04-29T15:16:22.530Z,47.10
2017-04-29T15:18:51.654Z,46.90
2017-04-29T15:21:20.774Z,47.50
2017-04-29T15:23:49.811Z,47.90
2017-04-29T15:26:18.902Z,48.20
2017-04-29T15:28:47.938Z,49.10
2017-04-29T15:31:16.989Z,48.20
2017-04-29T15:33:46.025Z,48.30
2017-04-29T15:36:15.134Z,47.20
2017-04-29T15:38:44.246Z,46.90
2017-04-29T15:41:14.050Z,46.20
2017-04-29T15:43:43.861Z,44.70
2017-04-29T15:46:13.683Z,44.80
2017-04-29T15:48:43.472Z,43.50
2017-04-29T15:51:12.595Z,45.10
2017-04-29T15:53:42.404Z,46.00
2017-04-29T15:56:11.430Z,44.50
2017-04-29T15:58:40.588Z,40.80
2017-04-29T16:01:09.694Z,36.60
2017-04-29T16:03:39.609Z,34.00
2017-04-29T16:06:09.412Z,33.00
2017-04-29T16:08:39.234Z,34.40
2017-04-29T16:11:09.046Z,34.40
2017-04-29T16:13:38.850Z,36.40
2017-04-29T16:16:07.886Z,37.20
2017-04-29T16:18:37.060Z,39.20
2017-04-29T16:21:06.830Z,40.40
2017-04-29T16:23:35.886Z,41.50
2017-04-29T16:26:04.956Z,40.90
2017-04-29T16:28:34.771Z,39.10
2017-04-29T16:31:04.583Z,38.80
2017-04-29T16:33:34.395Z,37.90
2017-04-29T16:36:04.168Z,37.50
2017-04-29T16:38:33.217Z,38.40
2017-04-29T16:41:02.258Z,38.80
2017-04-29T16:43:31.300Z,40.00
2017-04-29T16:46:01.306Z,40.60
2017-04-29T16:48:31.105Z,40.90
2017-04-29T16:51:00.200Z,41.20
2017-04-29T16:53:29.307Z,42.70
2017-04-29T16:55:59.095Z,45.30
2017-04-29T16:58:28.223Z,46.70
2017-04-29T17:00:58.017Z,48.00
2017-04-29T17:03:27.046Z,48.70
2017-04-29T17:05:56.107Z,48.90
2017-04-29T17:08:25.219Z,48.60
2017-04-29T17:10:55.324Z,47.90
2017-04-29T17:13:25.340Z,46.80
2017-04-29T17:15:55.172Z,45.50
2017-04-29T17:18:24.970Z,43.70
2017-04-29T17:20:54.065Z,41.90
2017-04-29T17:23:23.169Z,42.40
2017-04-29T17:25:53.075Z,44.50
2017-04-29T17:28:22.110Z,43.60
2017-04-29T17:30:51.184Z,42.30
2017-04-29T17:33:21.085Z,41.50
2017-04-29T17:35:50.279Z,40.30
2017-04-29T17:38:19.381Z,39.30
2017-04-29T17:40:49.190Z,38.80
2017-04-29T17:43:18.238Z,37.30
2017-04-29T17:45:47.266Z,37.10
2017-04-29T17:48:16.334Z,37.90
2017-04-29T17:50:45.383Z,36.90
2017-04-29T17:53:15.186Z,37.90
2017-04-29T17:55:44.998Z,37.20
2017-04-29T17:58:14.797Z,38.70
2017-04-29T18:00:43.831Z,38.20
2017-04-29T18:03:12.915Z,39.80
2017-04-29T18:05:42.750Z,41.30
2017-04-29T18:08:11.821Z,41.20
2017-04-29T18:10:41.633Z,42.50
2017-04-29T18:13:11.537Z,42.80
2017-04-29T18:15:41.353Z,43.80
2017-04-29T18:18:11.141Z,45.50
2017-04-29T18:20:40.177Z,46.20
2017-04-29T18:23:09.234Z,46.40
2017-04-29T18:25:38.350Z,46.80
2017-04-29T18:28:08.170Z,47.90
2017-04-29T18:30:38.074Z,47.80
2017-04-29T18:33:07.889Z,48.40
2017-04-29T18:35:37.673Z,50.20
2017-04-29T18:38:06.706Z,49.60
2017-04-29T18:40:36.495Z,50.30
2017-04-29T18:43:05.608Z,51.10
2017-04-29T18:45:35.438Z,51.50
2017-04-29T18:48:04.467Z,51.90
2017-04-29T18:50:33.522Z,52.10
2017-04-29T18:53:03.316Z,52.50
2017-04-29T18:55:32.356Z,52.70
2017-04-29T18:58:01.423Z,53.00
2017-04-29T19:00:31.212Z,53.70
2017-04-29T19:03:00.231Z,53.60
2017-04-29T19:05:30.027Z,53.90
2017-04-29T19:07:59.057Z,54.40
2017-04-29T19:10:28.121Z,54.50
2017-04-29T19:12:57.899Z,54.50
2017-04-29T19:15:26.993Z,54.50
2017-04-29T19:17:56.768Z,55.20
2017-04-29T19:20:25.785Z,55.10
2017-04-29T19:22:55.570Z,55.70
2017-04-29T19:25:24.685Z,55.60
2017-04-29T19:27:53.786Z,55.70
2017-04-29T19:30:22.815Z,56.00
2017-04-29T19:32:51.883Z,56.20
2017-04-29T19:35:21.697Z,56.20
2017-04-29T19:37:51.479Z,56.30
2017-04-29T19:40:20.505Z,56.50
2017-04-29T19:42:50.302Z,56.80
2017-04-29T19:45:19.331Z,57.10
2017-04-29T19:47:48.395Z,57.10
2017-04-29T19:50:17.450Z,57.20
2017-04-29T19:52:47.230Z,57.40
2017-04-29T19:55:16.266Z,57.50
2017-04-29T19:57:46.170Z,57.50
2017-04-29T20:02:50.403Z,57.60
2017-04-29T20:05:20.179Z,57.70
2017-04-29T20:07:49.222Z,57.90
2017-04-29T20:10:19.024Z,57.90
2017-04-29T20:12:48.805Z,58.10
2017-04-29T20:15:17.926Z,58.20
2017-04-29T20:17:47.707Z,58.40
2017-04-29T20:20:16.754Z,58.40
2017-04-29T20:22:45.796Z,58.70
2017-04-29T20:25:14.837Z,58.90
2017-04-29T20:27:44.603Z,59.40
2017-04-29T20:30:13.720Z,59.40
2017-04-29T20:32:42.800Z,59.50
2017-04-29T20:35:11.849Z,59.50
2017-04-29T20:37:40.882Z,59.90
2017-04-29T20:40:09.991Z,60.00
2017-04-29T20:42:39.047Z,60.00
2017-04-29T20:45:08.211Z,60.50
2017-04-29T20:47:37.991Z,60.60
2017-04-29T20:50:07.033Z,60.80
2017-04-29T20:52:36.077Z,60.90
2017-04-29T20:55:05.203Z,61.40
2017-04-29T20:57:34.976Z,62.10
2017-04-29T21:00:04.204Z,63.30
2017-04-29T21:02:33.261Z,63.60
2017-04-29T21:05:02.301Z,62.90
2017-04-29T21:07:31.400Z,65.20
2017-04-29T21:10:01.183Z,65.60
2017-04-29T21:12:30.310Z,65.90
2017-04-29T21:15:00.086Z,66.60
2017-04-29T21:17:29.146Z,65.20
2017-04-29T21:19:58.232Z,65.20
2017-04-29T21:22:27.300Z,65.10
2017-04-29T21:24:56.350Z,67.20
2017-04-29T21:27:25.506Z,68.30
2017-04-29T21:29:55.300Z,66.90
2017-04-29T21:32:24.405Z,66.70
2017-04-29T21:34:53.497Z,68.40
2017-04-29T21:37:23.292Z,69.40
2017-04-29T21:39:52.338Z,69.30
2017-04-29T21:42:21.386Z,70.00
2017-04-29T21:44:50.497Z,69.40
2017-04-29T21:47:20.288Z,67.70
2017-04-29T21:49:49.348Z,69.30
2017-04-29T21:52:18.400Z,70.20
2017-04-29T21:54:48.226Z,71.10
2017-04-29T21:57:17.998Z,70.60
2017-04-29T21:59:47.060Z,70.70
2017-04-29T22:02:16.113Z,70.90
2017-04-29T22:04:45.905Z,71.50
2017-04-29T22:07:14.973Z,71.50
2017-04-29T22:09:44.036Z,71.40
2017-04-29T22:12:13.065Z,72.20
2017-04-29T22:14:42.129Z,71.10
2017-04-29T22:17:11.207Z,72.10
2017-04-29T22:19:40.998Z,72.70
2017-04-29T22:22:10.034Z,74.00
2017-04-29T22:24:39.119Z,72.50
2017-04-29T22:27:08.891Z,72.50
2017-04-29T22:29:38.018Z,71.90
2017-04-29T22:32:07.060Z,71.90
2017-04-29T22:34:36.870Z,72.50
2017-04-29T22:37:05.978Z,73.40
2017-04-29T22:39:35.851Z,73.10
2017-04-29T22:42:04.991Z,73.00
2017-04-29T22:44:34.794Z,72.60
2017-04-29T22:47:04.606Z,72.40
2017-04-29T22:49:33.721Z,73.40
2017-04-29T22:52:03.502Z,72.60
2017-04-29T22:54:32.566Z,72.60
2017-04-29T22:57:01.709Z,72.10
2017-04-29T22:59:31.502Z,72.50
2017-04-29T23:02:00.616Z,72.90
2017-04-29T23:04:29.718Z,72.70
2017-04-29T23:06:59.529Z,72.50
2017-04-29T23:09:29.331Z,71.80
2017-04-29T23:11:58.370Z,72.60
2017-04-29T23:14:27.401Z,71.40
2017-04-29T23:16:56.533Z,71.00
2017-04-29T23:19:26.338Z,71.70
2017-04-29T23:21:56.153Z,72.90
2017-04-29T23:24:25.990Z,73.70
2017-04-29T23:26:55.036Z,75.40
2017-04-29T23:29:24.069Z,75.40
2017-04-29T23:31:53.983Z,74.60
2017-04-29T23:34:23.781Z,74.70
2017-04-29T23:36:53.581Z,74.60
2017-04-29T23:39:22.619Z,74.60
2017-04-29T23:41:51.689Z,75.10
2017-04-29T23:44:21.471Z,74.60
2017-04-29T23:46:50.599Z,74.10
2017-04-29T23:49:20.380Z,74.80
2017-04-29T23:51:49.428Z,75.30
2017-04-29T23:54:18.486Z,75.00
2017-04-29T23:56:47.527Z,74.80
2017-04-29T23:59:16.693Z,75.20
